Peckham, Oklahoma
Current Conditions -  °F | °C
As of 5:53 AM on Sunday 25 Jan 2015 (Local Time) from KPNC Reporting Station
Clear Clear  
Wind Chill: 42°   Ceiling: Unl
Heat Index: 48°   Visibility: 10mi
Dew Point: 33°   Wind: 15mph
Humidity: 56%   Direction: 310°NW
Pressure: 29.86"   Gusts: 23mph
Location:  36.9105°N, 97.0487°W
Report Text: KPNC 251153Z AUTO 31013G20KT 10SM CLR 09/01 A2986 RMK AO2 SLP109 T00890006 10122 20089 51005
Loading
Personal Weather Stations






























Interactive Weather Map New forecast layout! Learn more

10-Day Weather Forecast

Advertisements
Track Severe Weather on mobile